Time;durP1;ratioP1;P1;durP2;ratioP2;P2;SDS_P1;SDS_P2;PMS_P1;PMS_P2;Temp;Humidity;BMP_temperature;BMP_pressure;BME280_temperature;BME280_humidity;BME280_pressure;Samples;Min_cycle;Max_cycle;Signal;HPM_P1;HPM_P2
2021/12/01 00:00:49;;;;;;;1.85;1.73;;;12.20;96.90;;;;;;4955355;28;20530;-87
2021/12/01 00:03:14;;;;;;;2.58;2.38;;;12.10;96.80;;;;;;4950820;28;20033;-87
2021/12/01 00:05:40;;;;;;;2.55;2.17;;;12.10;96.80;;;;;;4996160;28;20026;-89
2021/12/01 00:08:06;;;;;;;2.90;2.63;;;12.10;96.80;;;;;;4979940;28;20045;-86
2021/12/01 00:10:34;;;;;;;2.80;2.60;;;12.10;96.70;;;;;;4989718;28;20175;-88
2021/12/01 00:13:04;;;;;;;3.03;2.72;;;12.10;96.70;;;;;;4995082;28;20478;-86
2021/12/01 00:15:31;;;;;;;2.92;2.63;;;12.10;96.70;;;;;;4956555;28;20355;-88
2021/12/01 00:17:56;;;;;;;3.33;3.03;;;12.10;96.70;;;;;;4985423;28;20462;-86
2021/12/01 00:20:22;;;;;;;3.80;3.50;;;12.10;96.60;;;;;;4975296;28;20252;-86
2021/12/01 00:22:48;;;;;;;3.80;3.45;;;12.10;96.60;;;;;;4968088;28;20031;-87
2021/12/01 00:25:17;;;;;;;4.53;4.10;;;12.10;96.60;;;;;;4980049;28;20034;-88
2021/12/01 00:27:44;;;;;;;5.45;4.95;;;12.10;96.50;;;;;;4981794;28;20058;-87
2021/12/01 00:30:10;;;;;;;4.82;4.43;;;12.00;96.50;;;;;;4963457;28;20040;-86
2021/12/01 00:32:36;;;;;;;4.38;3.97;;;12.00;96.40;;;;;;4955965;28;20414;-89
2021/12/01 00:35:05;;;;;;;4.10;3.80;;;12.00;96.50;;;;;;4962217;28;20396;-88
2021/12/01 00:37:30;;;;;;;3.95;3.65;;;12.00;96.60;;;;;;4959051;28;20225;-89
2021/12/01 00:39:56;;;;;;;4.85;3.38;;;12.00;96.50;;;;;;4969885;28;20510;-88
2021/12/01 00:42:22;;;;;;;4.07;3.78;;;12.00;96.50;;;;;;4973530;28;20219;-86
2021/12/01 00:44:55;;;;;;;4.30;3.90;;;12.00;96.40;;;;;;4961887;28;20113;-88
2021/12/01 00:47:23;;;;;;;4.13;3.72;;;12.00;96.30;;;;;;4947427;28;20958;-88
2021/12/01 00:49:49;;;;;;;3.90;3.47;;;12.00;96.20;;;;;;4977965;28;20026;-85
2021/12/01 00:52:15;;;;;;;4.47;3.88;;;11.90;96.60;;;;;;4983949;28;20034;-86
2021/12/01 00:54:40;;;;;;;4.10;3.80;;;11.90;96.00;;;;;;4950719;28;20569;-84
2021/12/01 00:57:06;;;;;;;3.85;3.47;;;11.90;96.20;;;;;;4978922;28;20033;-88
2021/12/01 00:59:34;;;;;;;3.40;3.10;;;11.90;96.30;;;;;;4960057;28;20096;-88
2021/12/01 01:01:59;;;;;;;3.20;3.00;;;12.00;96.40;;;;;;4946768;28;20141;-88
2021/12/01 01:04:25;;;;;;;3.50;3.20;;;11.90;96.40;;;;;;4961841;28;20034;-84
2021/12/01 01:06:50;;;;;;;3.33;3.03;;;11.90;96.30;;;;;;4958255;28;20302;-84
2021/12/01 01:09:16;;;;;;;3.40;3.00;;;11.90;96.40;;;;;;4978960;28;20502;-85
2021/12/01 01:17:19;;;;;;;3.03;2.72;;;11.90;96.10;;;;;;4965802;28;20482;-87
2021/12/01 01:19:45;;;;;;;2.58;2.38;;;12.00;96.20;;;;;;4936888;28;20018;-87
2021/12/01 01:22:11;;;;;;;2.78;2.55;;;12.00;96.20;;;;;;4977893;28;20030;-85
2021/12/01 01:24:37;;;;;;;2.47;2.20;;;12.00;96.10;;;;;;4969373;28;20081;-85
2021/12/01 01:27:03;;;;;;;2.63;2.42;;;11.90;95.90;;;;;;4958637;28;20215;-86
2021/12/01 01:29:33;;;;;;;2.08;1.90;;;12.00;95.70;;;;;;4976730;28;20042;-87
2021/12/01 01:31:59;;;;;;;2.70;2.50;;;12.00;95.90;;;;;;4960591;28;20041;-85
2021/12/01 01:34:26;;;;;;;2.55;2.35;;;12.00;95.70;;;;;;4967880;28;20026;-84
2021/12/01 01:36:52;;;;;;;2.20;2.08;;;12.00;95.50;;;;;;4967907;28;20158;-86
2021/12/01 01:39:18;;;;;;;2.85;2.00;;;11.90;95.40;;;;;;4976314;28;20893;-87
2021/12/01 01:41:45;;;;;;;2.53;2.33;;;11.90;95.30;;;;;;4974224;28;20026;-87
2021/12/01 01:44:10;;;;;;;2.95;2.17;;;11.90;95.40;;;;;;4974319;28;20034;-88
2021/12/01 01:46:38;;;;;;;2.20;2.00;;;11.80;95.40;;;;;;4940448;28;20237;-88
2021/12/01 01:49:11;;;;;;;2.45;2.08;;;11.80;95.40;;;;;;4959848;28;20029;-85
2021/12/01 01:51:39;;;;;;;3.00;2.80;;;11.70;95.40;;;;;;4968482;28;20249;-87
2021/12/01 01:54:05;;;;;;;2.95;2.75;;;11.70;95.40;;;;;;4959625;28;20022;-86
2021/12/01 01:56:31;;;;;;;3.03;2.60;;;11.70;95.40;;;;;;4967235;28;20031;-87
2021/12/01 01:58:57;;;;;;;2.70;2.50;;;11.70;95.40;;;;;;4958773;28;20271;-87
2021/12/01 02:03:53;;;;;;;3.03;2.75;;;11.60;95.50;;;;;;4949348;28;20392;-86
2021/12/01 02:06:25;;;;;;;3.10;2.80;;;11.60;95.60;;;;;;4955163;28;20050;-88
2021/12/01 02:08:53;;;;;;;2.75;2.47;;;11.60;95.70;;;;;;4951889;28;20112;-86
2021/12/01 02:11:20;;;;;;;2.85;2.60;;;11.50;95.50;;;;;;4977674;28;20050;-85
2021/12/01 02:13:46;;;;;;;3.45;2.70;;;11.60;95.60;;;;;;4949583;28;20138;-87
2021/12/01 02:16:13;;;;;;;3.83;3.40;;;11.60;95.60;;;;;;4976104;28;20065;-86
2021/12/01 02:18:41;;;;;;;3.58;2.90;;;11.50;95.50;;;;;;4960282;28;20517;-86
2021/12/01 02:21:11;;;;;;;3.25;2.95;;;11.50;95.80;;;;;;4970014;28;20039;-86
2021/12/01 02:23:40;;;;;;;3.60;3.03;;;11.50;95.80;;;;;;4967633;28;20081;-86
2021/12/01 02:26:06;;;;;;;3.42;3.13;;;11.50;95.50;;;;;;4976913;28;20030;-88
2021/12/01 02:28:34;;;;;;;3.60;3.30;;;11.50;95.80;;;;;;4968498;28;20026;-85
2021/12/01 02:31:00;;;;;;;4.40;3.50;;;11.50;95.90;;;;;;4958709;28;20400;-85
2021/12/01 02:33:26;;;;;;;3.88;3.58;;;11.50;95.80;;;;;;4969247;28;20065;-86
2021/12/01 02:35:52;;;;;;;3.97;3.30;;;11.50;95.80;;;;;;4948998;28;20042;-87
2021/12/01 02:38:18;;;;;;;4.10;3.70;;;11.50;95.70;;;;;;4963336;28;20471;-85
2021/12/01 02:40:45;;;;;;;3.35;3.05;;;11.50;95.60;;;;;;4960832;28;20499;-87
2021/12/01 02:43:11;;;;;;;3.58;3.28;;;11.50;95.80;;;;;;4971774;28;20129;-88
2021/12/01 02:45:39;;;;;;;3.53;3.22;;;11.50;95.50;;;;;;4977665;28;20077;-86
2021/12/01 02:48:06;;;;;;;3.58;3.28;;;11.50;95.60;;;;;;4981353;28;20544;-86
2021/12/01 02:50:32;;;;;;;3.88;3.50;;;11.40;95.40;;;;;;4960171;28;20551;-87
2021/12/01 02:52:58;;;;;;;3.58;3.22;;;11.40;95.40;;;;;;4974193;28;20235;-85
2021/12/01 02:55:27;;;;;;;3.65;3.30;;;11.40;95.50;;;;;;4963955;28;20049;-87
2021/12/01 02:57:54;;;;;;;3.50;3.10;;;11.40;95.50;;;;;;4979094;28;20159;-86
2021/12/01 03:00:22;;;;;;;4.45;3.30;;;11.40;95.40;;;;;;4954331;28;20522;-87
2021/12/01 03:02:50;;;;;;;3.25;2.95;;;11.40;95.50;;;;;;4958716;28;20026;-85
2021/12/01 03:05:17;;;;;;;3.65;2.88;;;11.40;95.40;;;;;;4951577;28;20038;-86
2021/12/01 03:07:43;;;;;;;3.60;3.30;;;11.40;95.50;;;;;;4943662;28;20228;-85
2021/12/01 03:10:10;;;;;;;3.38;3.08;;;11.40;95.50;;;;;;4980474;28;20038;-87
2021/12/01 03:12:37;;;;;;;4.20;3.60;;;11.30;95.40;;;;;;4971630;28;20027;-86
2021/12/01 03:15:06;;;;;;;3.50;2.90;;;11.30;95.10;;;;;;4979658;28;20532;-86
2021/12/01 03:17:32;;;;;;;3.50;2.80;;;11.30;95.40;;;;;;4952000;28;20109;-86
2021/12/01 03:19:58;;;;;;;3.45;3.15;;;11.30;95.50;;;;;;4939189;28;20432;-88
2021/12/01 03:22:25;;;;;;;2.70;2.50;;;11.30;95.30;;;;;;4971897;28;20041;-83
2021/12/01 03:24:51;;;;;;;5.10;2.97;;;11.30;95.30;;;;;;4986981;28;20085;-84
2021/12/01 03:27:17;;;;;;;2.88;2.47;;;11.30;95.10;;;;;;4962684;28;20369;-88
2021/12/01 03:29:46;;;;;;;3.22;2.70;;;11.30;95.30;;;;;;4953064;28;20037;-88
2021/12/01 03:32:13;;;;;;;3.30;2.85;;;11.30;95.30;;;;;;4961732;28;20303;-86
2021/12/01 03:34:40;;;;;;;3.30;3.00;;;11.20;95.00;;;;;;4945644;28;20046;-87
2021/12/01 03:37:06;;;;;;;3.53;2.63;;;11.20;94.60;;;;;;4954579;28;20030;-86
2021/12/01 03:39:32;;;;;;;2.63;2.35;;;11.20;94.80;;;;;;4959041;28;20014;-87
2021/12/01 03:41:57;;;;;;;3.05;2.67;;;11.10;95.00;;;;;;4977826;28;20264;-86
2021/12/01 03:44:23;;;;;;;6.75;3.40;;;11.10;94.90;;;;;;4992038;28;20042;-90
2021/12/01 03:46:48;;;;;;;3.65;2.50;;;11.00;95.00;;;;;;4950951;28;20268;-86
2021/12/01 03:49:14;;;;;;;3.88;3.30;;;11.00;95.00;;;;;;4963684;28;20062;-89
2021/12/01 03:51:40;;;;;;;3.42;2.95;;;11.00;95.10;;;;;;4979989;28;20097;-86
2021/12/01 03:54:05;;;;;;;3.22;2.72;;;11.00;95.30;;;;;;4966614;28;20031;-87
2021/12/01 03:56:33;;;;;;;4.50;2.90;;;10.90;95.20;;;;;;4953567;28;20022;-85
2021/12/01 03:59:01;;;;;;;4.45;3.80;;;10.90;95.30;;;;;;4976686;28;20224;-86
2021/12/01 04:01:27;;;;;;;3.90;3.45;;;10.90;95.30;;;;;;4979830;28;20042;-89
2021/12/01 04:03:54;;;;;;;6.03;3.60;;;10.80;95.30;;;;;;4963511;28;20382;-88
2021/12/01 04:06:20;;;;;;;3.35;3.03;;;10.80;95.30;;;;;;4953932;28;20490;-85
2021/12/01 04:08:46;;;;;;;4.15;3.17;;;10.80;95.50;;;;;;4959601;28;20029;-88
2021/12/01 04:11:11;;;;;;;3.63;2.95;;;10.80;95.70;;;;;;4956499;28;20117;-87
2021/12/01 04:13:37;;;;;;;4.28;3.40;;;10.80;95.70;;;;;;4977086;28;20045;-90
2021/12/01 04:16:03;;;;;;;5.18;3.88;;;10.90;95.70;;;;;;4962667;28;20395;-88
2021/12/01 04:18:29;;;;;;;3.80;3.10;;;10.80;95.50;;;;;;4971990;28;20487;-88
2021/12/01 04:20:55;;;;;;;3.60;3.05;;;10.80;95.60;;;;;;4976866;28;20345;-87
2021/12/01 04:23:20;;;;;;;3.10;2.42;;;10.80;95.60;;;;;;4965868;28;20586;-88
2021/12/01 04:25:46;;;;;;;3.35;2.40;;;10.80;95.70;;;;;;4970904;28;20645;-89
2021/12/01 04:28:12;;;;;;;3.03;2.72;;;10.90;95.60;;;;;;4969702;28;20392;-87
2021/12/01 04:30:38;;;;;;;4.50;2.88;;;10.90;95.80;;;;;;4991742;28;20474;-85
2021/12/01 04:33:04;;;;;;;3.03;2.72;;;10.90;95.60;;;;;;4977995;28;20036;-87
2021/12/01 04:35:30;;;;;;;3.65;3.08;;;11.00;95.60;;;;;;4968834;28;20057;-87
2021/12/01 04:37:56;;;;;;;3.95;2.97;;;11.00;95.50;;;;;;4947827;28;20121;-88
2021/12/01 04:40:22;;;;;;;4.05;3.30;;;11.00;95.40;;;;;;4987147;28;20571;-85
2021/12/01 04:42:48;;;;;;;4.07;3.20;;;11.00;95.10;;;;;;4983021;28;20412;-86
2021/12/01 04:45:15;;;;;;;3.22;2.92;;;10.90;95.30;;;;;;4960652;28;20023;-87
2021/12/01 04:47:47;;;;;;;3.05;2.75;;;10.90;95.10;;;;;;4973151;28;20026;-89
2021/12/01 04:50:13;;;;;;;3.25;2.67;;;10.90;95.20;;;;;;4979901;28;20033;-90
2021/12/01 04:52:40;;;;;;;3.75;3.08;;;10.90;95.60;;;;;;4974087;28;20031;-88
2021/12/01 04:55:07;;;;;;;3.65;2.78;;;10.80;95.30;;;;;;4959829;28;20030;-86
2021/12/01 04:57:32;;;;;;;5.10;2.70;;;10.80;95.30;;;;;;4976130;28;20120;-90
2021/12/01 04:59:58;;;;;;;2.70;2.33;;;10.80;95.40;;;;;;4975083;28;20046;-87
2021/12/01 05:02:24;;;;;;;2.22;2.03;;;10.80;95.50;;;;;;4974974;28;20045;-88
2021/12/01 05:04:49;;;;;;;2.30;2.00;;;10.80;95.60;;;;;;4991413;28;20499;-90
2021/12/01 05:07:16;;;;;;;2.40;1.70;;;10.80;95.60;;;;;;4994352;28;20490;-87
2021/12/01 05:09:42;;;;;;;1.60;1.50;;;10.70;96.00;;;;;;4929000;28;20030;-85
2021/12/01 05:12:08;;;;;;;1.40;1.30;;;10.70;95.70;;;;;;4979008;28;20019;-87
2021/12/01 05:14:35;;;;;;;1.83;1.30;;;10.70;95.80;;;;;;4952366;28;20502;-86
2021/12/01 05:17:01;;;;;;;1.17;1.08;;;10.70;95.90;;;;;;4973821;28;20249;-87
2021/12/01 05:19:26;;;;;;;1.73;1.23;;;10.70;95.80;;;;;;4976999;28;20446;-85
2021/12/01 05:21:52;;;;;;;1.30;1.20;;;10.60;95.70;;;;;;4958951;28;20027;-87
2021/12/01 05:24:18;;;;;;;1.20;1.10;;;10.60;95.80;;;;;;4978703;28;20034;-86
2021/12/01 05:26:44;;;;;;;1.10;1.00;;;10.60;95.90;;;;;;4945321;28;20160;-87
2021/12/01 05:29:09;;;;;;;1.77;1.05;;;10.60;95.90;;;;;;4967750;28;20533;-88
2021/12/01 05:31:35;;;;;;;1.30;1.20;;;10.60;96.00;;;;;;4954773;28;20022;-86
2021/12/01 05:34:02;;;;;;;1.83;1.20;;;10.60;96.00;;;;;;4971355;28;20125;-85
2021/12/01 05:36:27;;;;;;;2.45;1.38;;;10.60;96.00;;;;;;4950967;28;20025;-87
2021/12/01 05:38:53;;;;;;;1.48;1.00;;;10.60;96.00;;;;;;4968917;28;20707;-88
2021/12/01 05:41:19;;;;;;;1.40;1.30;;;10.60;96.40;;;;;;4944025;28;20031;-87
2021/12/01 05:43:45;;;;;;;1.20;1.10;;;10.60;96.10;;;;;;4964798;28;20057;-89
2021/12/01 05:46:11;;;;;;;2.33;1.40;;;10.60;96.20;;;;;;4974427;28;20486;-87
2021/12/01 05:48:37;;;;;;;2.03;1.80;;;10.60;96.20;;;;;;4941637;28;20033;-88
2021/12/01 05:51:03;;;;;;;1.40;1.30;;;10.60;96.20;;;;;;4966294;28;20467;-86
2021/12/01 05:53:29;;;;;;;2.55;1.50;;;10.60;96.30;;;;;;4974352;28;20080;-90
2021/12/01 05:55:56;;;;;;;2.60;1.88;;;10.60;96.40;;;;;;4942310;28;20578;-86
2021/12/01 05:58:22;;;;;;;3.22;2.00;;;10.60;96.40;;;;;;4976353;28;20030;-90
2021/12/01 06:00:47;;;;;;;2.70;1.75;;;10.60;96.40;;;;;;4971325;28;20521;-86
2021/12/01 06:03:13;;;;;;;2.35;1.95;;;10.60;96.40;;;;;;4940212;28;20123;-85
2021/12/01 06:05:39;;;;;;;1.95;1.75;;;10.70;96.40;;;;;;4972344;28;20262;-89
2021/12/01 06:08:05;;;;;;;2.63;1.60;;;10.70;96.50;;;;;;4945835;28;20350;-89
2021/12/01 06:10:31;;;;;;;1.40;1.30;;;10.70;96.50;;;;;;4965821;28;20380;-88
2021/12/01 06:12:57;;;;;;;2.88;1.85;;;10.70;96.60;;;;;;4977314;28;20127;-87
2021/12/01 06:15:22;;;;;;;2.13;1.40;;;10.70;96.50;;;;;;4964310;28;20469;-87
2021/12/01 06:17:48;;;;;;;1.25;1.15;;;10.70;96.60;;;;;;4974506;28;20165;-87
2021/12/01 06:20:15;;;;;;;2.25;1.50;;;10.80;96.60;;;;;;4990630;28;20053;-89
2021/12/01 06:22:42;;;;;;;2.33;1.20;;;10.80;96.50;;;;;;4987007;28;20116;-86
2021/12/01 06:25:09;;;;;;;1.30;1.17;;;10.80;96.40;;;;;;4970575;28;20030;-87
2021/12/01 06:27:35;;;;;;;0.98;0.98;;;10.80;96.40;;;;;;4939949;28;20084;-86
2021/12/01 06:30:00;;;;;;;1.33;1.08;;;10.80;96.50;;;;;;4953507;28;20019;-85
2021/12/01 06:32:26;;;;;;;0.95;0.90;;;10.80;96.40;;;;;;4959193;28;20023;-87
2021/12/01 06:34:52;;;;;;;1.30;1.20;;;10.80;96.50;;;;;;4990584;28;20116;-88
2021/12/01 06:37:18;;;;;;;1.70;1.35;;;10.80;96.40;;;;;;4966541;28;20037;-87
2021/12/01 06:39:46;;;;;;;1.30;1.20;;;10.80;96.40;;;;;;4967545;28;20361;-84
2021/12/01 06:42:13;;;;;;;1.23;1.13;;;10.90;96.40;;;;;;4943204;28;20034;-86
2021/12/01 06:44:39;;;;;;;1.38;1.27;;;10.90;96.40;;;;;;4950426;28;20271;-87
2021/12/01 06:47:05;;;;;;;2.22;1.73;;;10.80;96.50;;;;;;4975999;28;20478;-86
2021/12/01 06:49:31;;;;;;;2.00;1.58;;;10.90;96.40;;;;;;4972618;28;20038;-88
2021/12/01 06:51:58;;;;;;;1.77;1.48;;;10.90;96.40;;;;;;4949461;28;20026;-88
2021/12/01 06:54:24;;;;;;;1.50;1.40;;;10.90;96.40;;;;;;4978071;28;20026;-87
2021/12/01 06:56:50;;;;;;;1.30;1.20;;;10.90;96.40;;;;;;4927431;28;20038;-86
2021/12/01 06:59:15;;;;;;;1.80;1.38;;;10.90;96.40;;;;;;4979800;28;20498;-90
2021/12/01 07:01:41;;;;;;;1.95;1.20;;;10.90;96.40;;;;;;4974794;28;20538;-87
2021/12/01 07:04:07;;;;;;;1.08;1.02;;;11.00;96.40;;;;;;4978284;28;20039;-86
2021/12/01 07:06:32;;;;;;;1.38;1.00;;;11.00;96.40;;;;;;4961756;28;20039;-87
2021/12/01 07:09:01;;;;;;;1.20;1.10;;;11.00;96.40;;;;;;4982966;28;20031;-84
2021/12/01 07:11:28;;;;;;;1.20;1.10;;;11.00;96.40;;;;;;4947981;28;20029;-88
2021/12/01 07:13:54;;;;;;;1.10;1.00;;;11.00;96.40;;;;;;4947561;28;20730;-86
2021/12/01 07:16:20;;;;;;;1.30;1.20;;;11.00;96.40;;;;;;4972683;28;20034;-86
2021/12/01 07:18:45;;;;;;;1.30;1.10;;;11.00;96.50;;;;;;4950619;28;20034;-86
2021/12/01 07:21:11;;;;;;;1.15;1.10;;;11.00;96.40;;;;;;4972507;28;20484;-87
2021/12/01 07:23:37;;;;;;;1.40;1.30;;;11.00;96.50;;;;;;4946002;28;20122;-87
2021/12/01 07:26:04;;;;;;;2.42;1.20;;;11.10;96.40;;;;;;4987447;28;20097;-87
2021/12/01 07:28:30;;;;;;;1.40;1.13;;;11.10;96.40;;;;;;4932928;28;20026;-90
2021/12/01 07:30:55;;;;;;;1.73;1.40;;;11.10;96.40;;;;;;4953469;28;20217;-86
2021/12/01 07:33:21;;;;;;;2.08;1.30;;;11.10;96.40;;;;;;4976876;28;20082;-87
2021/12/01 07:35:47;;;;;;;1.00;1.00;;;11.10;96.40;;;;;;4972868;28;20553;-88
2021/12/01 07:38:13;;;;;;;1.08;1.05;;;11.10;96.40;;;;;;4975181;28;20121;-87
2021/12/01 07:40:39;;;;;;;1.30;1.20;;;11.10;96.50;;;;;;4957291;28;20045;-88
2021/12/01 07:43:04;;;;;;;1.40;1.30;;;11.10;96.50;;;;;;4968242;28;20034;-84
2021/12/01 07:45:30;;;;;;;1.10;1.00;;;11.10;96.50;;;;;;4937690;28;20049;-89
2021/12/01 07:47:56;;;;;;;1.30;1.20;;;11.10;96.50;;;;;;4963979;28;20069;-88
2021/12/01 07:50:22;;;;;;;1.00;0.90;;;11.10;96.60;;;;;;4957541;28;20026;-88
2021/12/01 07:52:47;;;;;;;1.27;1.17;;;11.00;96.50;;;;;;4956303;28;20132;-87
2021/12/01 07:55:13;;;;;;;1.30;0.95;;;11.00;96.60;;;;;;4960761;28;20494;-87
2021/12/01 07:57:39;;;;;;;1.10;1.10;;;11.00;96.60;;;;;;4971813;28;20042;-87
2021/12/01 08:00:06;;;;;;;1.05;1.05;;;11.10;96.60;;;;;;4946858;28;20042;-89
2021/12/01 08:02:32;;;;;;;1.00;0.95;;;11.00;96.70;;;;;;4972789;28;20042;-89
2021/12/01 08:04:58;;;;;;;0.88;0.88;;;11.00;96.70;;;;;;4973562;28;20084;-87
2021/12/01 08:07:27;;;;;;;1.30;1.20;;;11.00;96.70;;;;;;4962863;28;20076;-87
2021/12/01 08:09:53;;;;;;;1.27;1.00;;;11.00;96.70;;;;;;4956245;28;20274;-88
2021/12/01 08:12:18;;;;;;;1.02;1.00;;;11.00;96.70;;;;;;4975592;28;20031;-87
2021/12/01 08:14:44;;;;;;;0.88;0.88;;;11.00;96.70;;;;;;4975040;28;20467;-91
2021/12/01 08:17:09;;;;;;;0.90;0.90;;;11.00;96.70;;;;;;4955491;28;20301;-87
2021/12/01 08:19:35;;;;;;;1.00;1.00;;;11.10;96.70;;;;;;4947634;28;20034;-88
2021/12/01 08:22:01;;;;;;;1.10;1.10;;;11.10;96.80;;;;;;4960232;28;20030;-89
2021/12/01 08:24:26;;;;;;;0.90;0.90;;;11.10;96.80;;;;;;4970584;28;20157;-90
2021/12/01 08:26:52;;;;;;;1.20;1.10;;;11.10;96.90;;;;;;4955893;28;20018;-87
2021/12/01 08:29:18;;;;;;;1.30;1.20;;;11.10;96.80;;;;;;4955687;28;20034;-89
2021/12/01 08:31:44;;;;;;;1.50;1.33;;;11.10;96.90;;;;;;4925399;28;20038;-89
2021/12/01 08:34:11;;;;;;;1.40;1.30;;;11.10;96.90;;;;;;4954932;28;20053;-85
2021/12/01 08:36:37;;;;;;;1.52;1.42;;;11.10;96.90;;;;;;4941322;28;20497;-89
2021/12/01 08:39:04;;;;;;;1.73;1.60;;;11.10;96.90;;;;;;4968537;28;20035;-86
2021/12/01 08:41:30;;;;;;;1.60;1.50;;;11.20;96.90;;;;;;4973460;28;20224;-89
2021/12/01 08:43:56;;;;;;;1.50;1.40;;;11.20;96.90;;;;;;4974728;28;20037;-89
2021/12/01 08:46:22;;;;;;;1.60;1.45;;;11.20;96.90;;;;;;4940245;28;20029;-85
2021/12/01 08:48:47;;;;;;;1.33;1.23;;;11.20;96.90;;;;;;4960888;28;20304;-86
2021/12/01 08:51:13;;;;;;;1.33;1.23;;;11.20;97.00;;;;;;4956097;28;20391;-90
2021/12/01 08:53:41;;;;;;;1.70;1.48;;;11.20;96.90;;;;;;4981717;28;20508;-87
2021/12/01 08:56:08;;;;;;;1.23;1.13;;;11.20;96.90;;;;;;4971119;28;20033;-87
2021/12/01 08:58:34;;;;;;;1.50;1.40;;;11.30;96.90;;;;;;4969654;28;20105;-90
2021/12/01 09:01:00;;;;;;;1.50;1.30;;;11.20;96.90;;;;;;4974780;28;20055;-85
2021/12/01 09:03:26;;;;;;;1.45;1.35;;;11.30;96.90;;;;;;4966634;28;20499;-87
2021/12/01 09:05:53;;;;;;;1.50;1.40;;;11.30;96.90;;;;;;4957862;28;20057;-88
2021/12/01 09:08:20;;;;;;;1.42;1.30;;;11.30;96.90;;;;;;4949625;28;20041;-88
2021/12/01 09:10:51;;;;;;;1.58;1.48;;;11.30;97.20;;;;;;4963106;28;20475;-87
2021/12/01 09:13:17;;;;;;;1.40;1.30;;;11.30;96.80;;;;;;4970902;28;20037;-89
2021/12/01 09:15:43;;;;;;;1.35;1.25;;;11.40;97.00;;;;;;4972700;28;20248;-86
2021/12/01 09:18:09;;;;;;;1.50;1.40;;;11.40;97.10;;;;;;4961569;28;20031;-88
2021/12/01 09:20:35;;;;;;;1.20;1.13;;;11.40;97.20;;;;;;4935349;28;20065;-88
2021/12/01 09:23:03;;;;;;;1.25;1.05;;;11.40;97.20;;;;;;4969136;28;20031;-87
2021/12/01 09:25:29;;;;;;;2.10;1.77;;;11.50;97.20;;;;;;4970507;28;20330;-88
2021/12/01 09:27:55;;;;;;;1.08;1.00;;;11.50;97.10;;;;;;4960681;28;20026;-89
2021/12/01 09:30:20;;;;;;;1.38;1.23;;;11.60;97.10;;;;;;4969445;28;20054;-88
2021/12/01 09:32:46;;;;;;;1.30;1.20;;;11.50;96.90;;;;;;4965534;28;20744;-86
2021/12/01 09:35:14;;;;;;;1.42;1.10;;;11.60;96.80;;;;;;4949402;28;20112;-88
2021/12/01 09:37:40;;;;;;;1.45;0.90;;;11.60;96.70;;;;;;4969481;28;20037;-87
2021/12/01 09:40:14;;;;;;;1.48;1.20;;;11.60;96.70;;;;;;4968410;28;20066;-87
2021/12/01 09:42:52;;;;;;;1.77;1.08;;;11.60;96.50;;;;;;4971773;28;20234;-86
2021/12/01 09:45:22;;;;;;;2.45;1.00;;;11.50;96.50;;;;;;4986988;28;20027;-88
2021/12/01 09:47:49;;;;;;;0.88;0.88;;;11.60;96.70;;;;;;4964685;28;20026;-86
2021/12/01 09:50:14;;;;;;;1.38;0.90;;;11.50;96.70;;;;;;4960756;28;20030;-89
2021/12/01 09:52:40;;;;;;;1.25;0.80;;;11.60;96.70;;;;;;4967466;28;20598;-88
2021/12/01 09:55:07;;;;;;;1.13;0.95;;;11.50;96.60;;;;;;4955145;28;20054;-88
2021/12/01 09:57:34;;;;;;;1.60;0.80;;;11.60;96.50;;;;;;4958986;28;20759;-88
2021/12/01 10:00:00;;;;;;;1.42;0.98;;;11.50;96.50;;;;;;4967660;28;20121;-86
2021/12/01 10:02:26;;;;;;;0.80;0.80;;;11.50;96.50;;;;;;4956973;28;20034;-87
2021/12/01 10:04:52;;;;;;;1.45;0.80;;;11.60;96.60;;;;;;4963826;28;20034;-89
2021/12/01 10:07:21;;;;;;;1.52;0.60;;;11.50;96.70;;;;;;4941347;28;20023;-85
2021/12/01 10:09:50;;;;;;;1.52;0.73;;;11.60;96.80;;;;;;4953844;28;20490;-89
2021/12/01 10:12:16;;;;;;;2.58;1.30;;;11.60;97.10;;;;;;4954294;28;20179;-87
2021/12/01 10:14:51;;;;;;;0.93;0.80;;;11.60;96.50;;;;;;4962480;28;20233;-87
2021/12/01 10:17:32;;;;;;;2.78;1.00;;;11.60;96.20;;;;;;4954212;28;20038;-88
2021/12/01 10:20:15;;;;;;;1.23;0.90;;;11.60;96.30;;;;;;4963764;28;20526;-85
2021/12/01 10:23:07;;;;;;;3.15;0.98;;;11.60;96.10;;;;;;4925242;28;20069;-87
2021/12/01 10:25:33;;;;;;;2.38;1.08;;;11.60;95.90;;;;;;4970964;28;20034;-88
2021/12/01 10:27:59;;;;;;;2.10;0.98;;;11.60;96.40;;;;;;4976036;28;20023;-87
2021/12/01 10:30:39;;;;;;;3.05;1.20;;;11.60;96.30;;;;;;4973285;28;20027;-86
2021/12/01 10:33:11;;;;;;;2.20;0.90;;;11.60;95.70;;;;;;4971904;28;20042;-86
2021/12/01 10:35:37;;;;;;;3.65;1.25;;;11.70;95.80;;;;;;4977722;28;20042;-89
2021/12/01 10:38:06;;;;;;;3.25;1.60;;;11.60;95.60;;;;;;4940867;28;20072;-88
2021/12/01 10:40:32;;;;;;;4.78;1.35;;;11.60;95.30;;;;;;4970886;28;20225;-85
2021/12/01 10:43:00;;;;;;;3.25;0.85;;;11.60;95.30;;;;;;4959297;28;20033;-85
2021/12/01 10:45:41;;;;;;;3.30;1.00;;;11.60;95.30;;;;;;4973160;28;20400;-87
2021/12/01 10:48:10;;;;;;;3.17;1.02;;;11.50;94.90;;;;;;4965293;28;20081;-88
2021/12/01 10:50:40;;;;;;;2.80;1.02;;;11.50;95.50;;;;;;4957724;28;20023;-88
2021/12/01 10:53:12;;;;;;;3.40;1.00;;;11.50;95.90;;;;;;4977337;28;20026;-86
2021/12/01 10:55:49;;;;;;;1.63;0.60;;;11.50;96.30;;;;;;4952564;28;20891;-87
2021/12/01 10:58:17;;;;;;;1.73;0.60;;;11.50;95.80;;;;;;4958271;28;20018;-87
2021/12/01 11:00:51;;;;;;;1.42;0.55;;;11.60;95.90;;;;;;4975279;28;20038;-86
2021/12/01 11:03:20;;;;;;;0.80;0.60;;;11.60;95.50;;;;;;4963678;28;20074;-87
2021/12/01 11:05:57;;;;;;;0.65;0.65;;;11.60;95.40;;;;;;4982904;28;20117;-86
2021/12/01 11:08:26;;;;;;;1.33;0.65;;;11.60;95.20;;;;;;4964534;28;20026;-89
2021/12/01 11:11:18;;;;;;;2.53;0.70;;;11.60;95.00;;;;;;4951115;28;20031;-86
2021/12/01 11:13:46;;;;;;;1.55;0.60;;;11.50;94.00;;;;;;4983722;28;20039;-86
2021/12/01 11:16:13;;;;;;;2.08;0.60;;;11.50;95.00;;;;;;4976674;28;20023;-86
2021/12/01 11:18:41;;;;;;;1.48;0.60;;;11.50;94.80;;;;;;4971117;28;20197;-87
2021/12/01 11:21:21;;;;;;;3.20;0.65;;;11.40;94.80;;;;;;4979916;28;20036;-87
2021/12/01 11:23:53;;;;;;;0.85;0.50;;;11.40;94.30;;;;;;4977630;28;20029;-86
2021/12/01 11:26:21;;;;;;;1.75;0.70;;;11.40;94.70;;;;;;4945155;28;20029;-87
2021/12/01 11:28:52;;;;;;;1.65;0.50;;;11.30;94.70;;;;;;4975807;28;20028;-87
2021/12/01 11:31:20;;;;;;;1.02;0.63;;;11.30;94.80;;;;;;4973646;28;20026;-88
2021/12/01 11:33:47;;;;;;;0.65;0.43;;;11.30;95.20;;;;;;4978795;28;20031;-84
2021/12/01 11:36:16;;;;;;;1.13;0.50;;;11.30;95.40;;;;;;4958303;28;20474;-90
2021/12/01 11:38:42;;;;;;;1.00;0.60;;;11.30;95.50;;;;;;4957826;28;20264;-87
2021/12/01 11:41:09;;;;;;;1.67;0.40;;;11.30;95.60;;;;;;4934862;28;20438;-87
2021/12/01 11:43:37;;;;;;;1.05;0.43;;;11.40;95.80;;;;;;4967255;28;20087;-86
2021/12/01 11:46:03;;;;;;;2.20;0.40;;;11.40;95.80;;;;;;4962414;28;20078;-86
2021/12/01 11:48:33;;;;;;;1.92;0.47;;;11.50;95.70;;;;;;4952930;28;20019;-86
2021/12/01 11:51:14;;;;;;;1.75;0.60;;;11.50;95.40;;;;;;4986085;28;20049;-87
2021/12/01 11:53:42;;;;;;;0.40;0.40;;;11.50;95.40;;;;;;4995272;28;20034;-87
2021/12/01 11:56:15;;;;;;;2.03;0.80;;;11.60;95.40;;;;;;4940445;28;20038;-87
2021/12/01 11:58:40;;;;;;;0.63;0.52;;;11.60;95.30;;;;;;4961631;28;20058;-86
2021/12/01 12:01:27;;;;;;;1.40;0.40;;;11.60;95.50;;;;;;4988586;28;20172;-88
2021/12/01 12:04:01;;;;;;;2.40;0.85;;;11.60;94.40;;;;;;4947338;28;20057;-86
2021/12/01 12:06:32;;;;;;;2.75;1.08;;;11.60;95.00;;;;;;4964159;28;20026;-88
2021/12/01 12:08:59;;;;;;;8.18;1.38;;;11.70;95.40;;;;;;4960323;28;20499;-88
2021/12/01 12:11:46;;;;;;;4.57;1.30;;;11.60;95.20;;;;;;4941321;28;20296;-87
2021/12/01 12:14:28;;;;;;;2.70;1.10;;;11.70;94.20;;;;;;4950558;28;20023;-88
2021/12/01 12:17:19;;;;;;;4.75;1.30;;;11.70;94.60;;;;;;4975019;28;20033;-87
2021/12/01 12:20:08;;;;;;;2.92;1.20;;;11.60;94.10;;;;;;4947414;28;20026;-86
2021/12/01 12:22:38;;;;;;;3.13;0.90;;;11.60;94.30;;;;;;4950596;28;20022;-85
2021/12/01 12:25:08;;;;;;;3.33;0.70;;;11.60;94.40;;;;;;4933497;28;20053;-89
2021/12/01 12:27:47;;;;;;;1.85;0.63;;;11.60;94.70;;;;;;4976800;28;20027;-88
2021/12/01 12:30:36;;;;;;;2.78;1.15;;;11.60;94.00;;;;;;4942175;28;20065;-85
2021/12/01 12:33:22;;;;;;;2.20;0.90;;;11.60;94.70;;;;;;4964548;28;20102;-88
2021/12/01 12:35:50;;;;;;;1.42;0.60;;;11.60;93.90;;;;;;4962934;28;20443;-85
2021/12/01 12:38:16;;;;;;;1.38;1.00;;;11.60;94.70;;;;;;4945578;28;20249;-88
2021/12/01 12:40:42;;;;;;;1.08;0.60;;;11.60;94.70;;;;;;4951923;28;20065;-86
2021/12/01 12:43:09;;;;;;;1.05;0.60;;;11.50;94.70;;;;;;4972975;28;20097;-87
2021/12/01 12:45:59;;;;;;;1.55;0.70;;;11.60;94.70;;;;;;4951604;28;20037;-87
2021/12/01 12:48:29;;;;;;;1.17;0.68;;;11.60;94.60;;;;;;4950222;28;20034;-87
2021/12/01 12:51:15;;;;;;;2.20;0.95;;;11.60;95.30;;;;;;4958508;28;20109;-89
2021/12/01 12:53:59;;;;;;;1.35;0.57;;;11.70;95.00;;;;;;4961413;28;20027;-86
2021/12/01 12:56:27;;;;;;;1.77;0.63;;;11.70;94.50;;;;;;4967413;28;21015;-87
2021/12/01 12:59:12;;;;;;;2.22;0.73;;;11.70;95.40;;;;;;4968315;28;20077;-88